Terminal Aerodrome Forecast
Issued by NWS

Home | Current Version | Previous Version | Graphics & Text | Print | Product List | Glossary On
Versions: 1 2 3 4 5 6 7 8 9 10 11 12 13 14 15 16 17 18 19 20 21 22 23 24
651
FTUS43 KGRB 241542 AAA
TAFMTW
TAF AMD
KMTW 241542Z 2416/2512 10010KT P6SM BKN025 BKN060
      TEMPO 2416/2419 SCT025 BKN060
     FM241900 10008KT P6SM FEW025 SCT080
     FM250600 12006KT P6SM BKN035 OVC060=

USA.gov is the U.S. government's official web portal to all federal, state and local government web resources and services.